KHND

Details ICAO KHND (HSH)
Name Henderson Executive
Region United States
Timezone America/Los_Angeles (UTC-8.0)
Plans Departing 63
Arriving 83
Stats Elevation 2,492 ft / 760 m (AMSL)
Location 35.972988° -115.134228°
Runways 2
Magnetic Variation 11.630° E
Sunrise 2017-12-15 14:45:22 UTC / 2017-12-15 06:45:22 Local
Sunset 2017-12-16 00:29:06 UTC / 2017-12-15 16:29:06 Local
Advertisement - Login to hide

Runways

ID Width Length Bearing (true) Bearing (mag) Surface Threshold Offset Overrun Length
17L 75 ft / 23 m 5,012 ft / 1,528 m 180.58° 168.95° Asphalt 0 ft / 0 m 151 ft / 46 m
17R 98 ft / 30 m 6,515 ft / 1,986 m 180.57° 168.94° Asphalt 0 ft / 0 m 200 ft / 61 m
35L 98 ft / 30 m 6,515 ft / 1,986 m 0.57° 348.94° Asphalt 0 ft / 0 m 200 ft / 61 m
35R 75 ft / 23 m 5,012 ft / 1,528 m 0.58° 348.95° Asphalt 0 ft / 0 m 151 ft / 46 m

Map

Weather


0- 5 10 15 20 25 30 35+ Temperature / ° C

Clouds and Precipitation
Forecast for 2017-12-16 00:00 UTC. Updated 38 minutes ago

Ground ~20,000 ft ~40,000 ft Winds

METAR

KHND 152256Z 02006KT 10SM CLR 15/M09 A3011 RMK AO2 SLP200 T01501094 $

TAF

TAF KHND 152320Z 1600/1624 03006KT P6SM SCT200 FM160300 20008KT P6SM BKN200 FM161800 36007KT P6SM BKN150

Frequencies

Recorded 120.77 MHz ATIS
Unicom 122.95 MHz UNICOM
Tower 125.10 MHz TWR
Unicom 125.10 MHz CTAF
Ground 127.80 MHz GND
Approach 118.40 MHz Las Vegas APP/DEP
Warning: Do not use this data for real-world aviation or navigation. No guarantee of current accuracy is given.